sensor_id;sensor_type;location;lat;lon;timestamp;P1;durP1;ratioP1;P2;durP2;ratioP2
17171;SDS011;8701;50.150;8.756;2024-01-11T00:00:26;24.07;;;10.53;;
17171;SDS011;8701;50.150;8.756;2024-01-11T00:04:30;22.73;;;10.57;;
17171;SDS011;8701;50.150;8.756;2024-01-11T00:08:32;23.23;;;11.53;;
17171;SDS011;8701;50.150;8.756;2024-01-11T00:12:35;22.87;;;10.80;;
17171;SDS011;8701;50.150;8.756;2024-01-11T00:16:37;22.90;;;10.87;;
17171;SDS011;8701;50.150;8.756;2024-01-11T00:20:41;22.10;;;10.53;;
17171;SDS011;8701;50.150;8.756;2024-01-11T00:24:44;24.27;;;11.50;;
17171;SDS011;8701;50.150;8.756;2024-01-11T00:28:46;23.37;;;11.87;;
17171;SDS011;8701;50.150;8.756;2024-01-11T00:32:48;28.70;;;11.67;;
17171;SDS011;8701;50.150;8.756;2024-01-11T00:36:52;27.77;;;12.07;;
17171;SDS011;8701;50.150;8.756;2024-01-11T00:40:54;28.83;;;12.33;;
17171;SDS011;8701;50.150;8.756;2024-01-11T00:44:56;24.00;;;10.83;;
17171;SDS011;8701;50.150;8.756;2024-01-11T00:48:59;24.63;;;11.83;;
17171;SDS011;8701;50.150;8.756;2024-01-11T00:53:02;21.27;;;10.00;;
17171;SDS011;8701;50.150;8.756;2024-01-11T00:57:05;25.10;;;11.90;;
17171;SDS011;8701;50.150;8.756;2024-01-11T01:01:08;26.07;;;11.17;;
17171;SDS011;8701;50.150;8.756;2024-01-11T01:05:11;24.50;;;11.97;;
17171;SDS011;8701;50.150;8.756;2024-01-11T01:09:15;24.63;;;11.40;;
17171;SDS011;8701;50.150;8.756;2024-01-11T01:13:18;21.87;;;10.80;;
17171;SDS011;8701;50.150;8.756;2024-01-11T01:17:20;26.97;;;10.80;;
17171;SDS011;8701;50.150;8.756;2024-01-11T01:21:23;27.73;;;11.30;;
17171;SDS011;8701;50.150;8.756;2024-01-11T01:25:27;25.87;;;11.80;;
17171;SDS011;8701;50.150;8.756;2024-01-11T01:29:29;20.73;;;11.07;;
17171;SDS011;8701;50.150;8.756;2024-01-11T01:33:32;30.30;;;11.30;;
17171;SDS011;8701;50.150;8.756;2024-01-11T01:37:34;23.63;;;10.60;;
17171;SDS011;8701;50.150;8.756;2024-01-11T01:41:37;22.73;;;11.10;;
17171;SDS011;8701;50.150;8.756;2024-01-11T01:45:40;25.27;;;11.17;;
17171;SDS011;8701;50.150;8.756;2024-01-11T01:49:42;23.47;;;11.70;;
17171;SDS011;8701;50.150;8.756;2024-01-11T01:53:45;25.50;;;11.00;;
17171;SDS011;8701;50.150;8.756;2024-01-11T01:57:49;22.70;;;10.67;;
17171;SDS011;8701;50.150;8.756;2024-01-11T02:01:52;25.57;;;10.90;;
17171;SDS011;8701;50.150;8.756;2024-01-11T02:05:55;23.00;;;12.83;;
17171;SDS011;8701;50.150;8.756;2024-01-11T02:09:57;22.87;;;10.37;;
17171;SDS011;8701;50.150;8.756;2024-01-11T02:14:01;21.93;;;10.70;;
17171;SDS011;8701;50.150;8.756;2024-01-11T02:18:04;23.30;;;10.80;;
17171;SDS011;8701;50.150;8.756;2024-01-11T02:22:08;25.80;;;11.43;;
17171;SDS011;8701;50.150;8.756;2024-01-11T02:26:18;30.60;;;11.13;;
17171;SDS011;8701;50.150;8.756;2024-01-11T02:30:23;23.80;;;10.40;;
17171;SDS011;8701;50.150;8.756;2024-01-11T02:34:26;21.03;;;10.40;;
17171;SDS011;8701;50.150;8.756;2024-01-11T02:38:29;28.27;;;11.53;;
17171;SDS011;8701;50.150;8.756;2024-01-11T02:42:35;22.83;;;10.67;;
17171;SDS011;8701;50.150;8.756;2024-01-11T02:46:37;26.70;;;11.83;;
17171;SDS011;8701;50.150;8.756;2024-01-11T02:50:39;21.93;;;9.93;;
17171;SDS011;8701;50.150;8.756;2024-01-11T02:54:41;23.20;;;11.13;;
17171;SDS011;8701;50.150;8.756;2024-01-11T02:58:45;23.63;;;11.50;;
17171;SDS011;8701;50.150;8.756;2024-01-11T03:02:47;24.40;;;11.07;;
17171;SDS011;8701;50.150;8.756;2024-01-11T03:06:50;22.83;;;11.50;;
17171;SDS011;8701;50.150;8.756;2024-01-11T03:10:52;24.00;;;10.53;;
17171;SDS011;8701;50.150;8.756;2024-01-11T03:14:55;25.70;;;10.90;;
17171;SDS011;8701;50.150;8.756;2024-01-11T03:18:58;23.67;;;11.13;;
17171;SDS011;8701;50.150;8.756;2024-01-11T03:23:00;23.03;;;11.13;;
17171;SDS011;8701;50.150;8.756;2024-01-11T03:27:03;28.13;;;12.80;;
17171;SDS011;8701;50.150;8.756;2024-01-11T03:31:08;20.60;;;9.80;;
17171;SDS011;8701;50.150;8.756;2024-01-11T03:35:10;25.43;;;11.97;;
17171;SDS011;8701;50.150;8.756;2024-01-11T03:39:13;28.23;;;12.47;;
17171;SDS011;8701;50.150;8.756;2024-01-11T03:43:16;25.33;;;11.97;;
17171;SDS011;8701;50.150;8.756;2024-01-11T03:47:20;26.73;;;11.97;;
17171;SDS011;8701;50.150;8.756;2024-01-11T03:51:22;24.30;;;11.33;;
17171;SDS011;8701;50.150;8.756;2024-01-11T03:55:25;25.23;;;12.53;;
17171;SDS011;8701;50.150;8.756;2024-01-11T03:59:27;21.60;;;10.37;;
17171;SDS011;8701;50.150;8.756;2024-01-11T04:03:30;26.60;;;12.80;;
17171;SDS011;8701;50.150;8.756;2024-01-11T04:07:33;30.27;;;12.83;;
17171;SDS011;8701;50.150;8.756;2024-01-11T04:11:35;26.97;;;12.63;;
17171;SDS011;8701;50.150;8.756;2024-01-11T04:15:37;23.73;;;10.60;;
17171;SDS011;8701;50.150;8.756;2024-01-11T04:19:41;28.97;;;13.60;;
17171;SDS011;8701;50.150;8.756;2024-01-11T04:23:44;29.93;;;12.77;;
17171;SDS011;8701;50.150;8.756;2024-01-11T04:27:47;28.17;;;13.37;;
17171;SDS011;8701;50.150;8.756;2024-01-11T04:31:49;27.57;;;12.07;;
17171;SDS011;8701;50.150;8.756;2024-01-11T04:35:52;25.47;;;12.47;;
17171;SDS011;8701;50.150;8.756;2024-01-11T04:39:55;26.77;;;12.43;;
17171;SDS011;8701;50.150;8.756;2024-01-11T04:44:00;29.27;;;13.27;;
17171;SDS011;8701;50.150;8.756;2024-01-11T04:48:02;33.20;;;12.93;;
17171;SDS011;8701;50.150;8.756;2024-01-11T04:52:07;28.60;;;13.50;;
17171;SDS011;8701;50.150;8.756;2024-01-11T04:56:10;27.87;;;12.60;;
17171;SDS011;8701;50.150;8.756;2024-01-11T05:00:13;32.53;;;13.30;;
17171;SDS011;8701;50.150;8.756;2024-01-11T05:04:15;30.03;;;13.53;;
17171;SDS011;8701;50.150;8.756;2024-01-11T05:08:19;32.70;;;13.47;;
17171;SDS011;8701;50.150;8.756;2024-01-11T05:12:21;26.93;;;12.63;;
17171;SDS011;8701;50.150;8.756;2024-01-11T05:16:24;30.17;;;12.70;;
17171;SDS011;8701;50.150;8.756;2024-01-11T05:20:28;28.73;;;13.93;;
17171;SDS011;8701;50.150;8.756;2024-01-11T05:24:31;35.63;;;15.60;;
17171;SDS011;8701;50.150;8.756;2024-01-11T05:28:34;28.97;;;13.27;;
17171;SDS011;8701;50.150;8.756;2024-01-11T05:32:36;31.60;;;12.30;;
17171;SDS011;8701;50.150;8.756;2024-01-11T05:36:38;26.03;;;12.97;;
17171;SDS011;8701;50.150;8.756;2024-01-11T05:40:42;26.57;;;12.80;;
17171;SDS011;8701;50.150;8.756;2024-01-11T05:44:44;28.30;;;12.80;;
17171;SDS011;8701;50.150;8.756;2024-01-11T05:48:46;35.73;;;14.50;;
17171;SDS011;8701;50.150;8.756;2024-01-11T05:52:48;27.60;;;12.50;;
17171;SDS011;8701;50.150;8.756;2024-01-11T05:56:53;32.60;;;14.57;;
17171;SDS011;8701;50.150;8.756;2024-01-11T06:00:56;27.17;;;13.00;;
17171;SDS011;8701;50.150;8.756;2024-01-11T06:04:58;32.53;;;12.90;;
17171;SDS011;8701;50.150;8.756;2024-01-11T06:09:01;28.80;;;12.47;;
17171;SDS011;8701;50.150;8.756;2024-01-11T06:13:06;28.90;;;13.30;;
17171;SDS011;8701;50.150;8.756;2024-01-11T06:17:10;28.07;;;12.30;;
17171;SDS011;8701;50.150;8.756;2024-01-11T06:21:12;37.17;;;13.27;;
17171;SDS011;8701;50.150;8.756;2024-01-11T06:25:16;24.20;;;11.90;;
17171;SDS011;8701;50.150;8.756;2024-01-11T06:29:20;27.97;;;12.27;;
17171;SDS011;8701;50.150;8.756;2024-01-11T06:33:22;23.27;;;11.10;;
17171;SDS011;8701;50.150;8.756;2024-01-11T06:37:25;33.73;;;13.97;;
17171;SDS011;8701;50.150;8.756;2024-01-11T06:41:27;28.30;;;12.50;;
17171;SDS011;8701;50.150;8.756;2024-01-11T06:45:31;27.90;;;12.30;;
17171;SDS011;8701;50.150;8.756;2024-01-11T06:49:33;29.87;;;13.10;;
17171;SDS011;8701;50.150;8.756;2024-01-11T06:53:36;31.60;;;13.27;;
17171;SDS011;8701;50.150;8.756;2024-01-11T06:57:38;28.10;;;13.10;;
17171;SDS011;8701;50.150;8.756;2024-01-11T07:01:42;33.30;;;13.53;;
17171;SDS011;8701;50.150;8.756;2024-01-11T07:05:44;27.53;;;12.60;;
17171;SDS011;8701;50.150;8.756;2024-01-11T07:09:46;37.40;;;15.10;;
17171;SDS011;8701;50.150;8.756;2024-01-11T07:13:49;35.10;;;12.97;;
17171;SDS011;8701;50.150;8.756;2024-01-11T07:17:52;33.07;;;14.37;;
17171;SDS011;8701;50.150;8.756;2024-01-11T07:21:55;39.10;;;14.23;;
17171;SDS011;8701;50.150;8.756;2024-01-11T07:25:57;31.17;;;12.20;;
17171;SDS011;8701;50.150;8.756;2024-01-11T07:30:00;27.50;;;13.00;;
17171;SDS011;8701;50.150;8.756;2024-01-11T07:34:04;29.50;;;13.10;;
17171;SDS011;8701;50.150;8.756;2024-01-11T07:38:06;24.50;;;13.00;;
17171;SDS011;8701;50.150;8.756;2024-01-11T07:42:09;33.30;;;14.67;;
17171;SDS011;8701;50.150;8.756;2024-01-11T07:46:11;22.27;;;12.80;;
17171;SDS011;8701;50.150;8.756;2024-01-11T07:50:15;32.63;;;13.50;;
17171;SDS011;8701;50.150;8.756;2024-01-11T07:54:17;32.73;;;13.37;;
17171;SDS011;8701;50.150;8.756;2024-01-11T07:58:19;30.50;;;14.07;;
17171;SDS011;8701;50.150;8.756;2024-01-11T08:02:22;35.10;;;15.20;;
17171;SDS011;8701;50.150;8.756;2024-01-11T08:06:25;30.73;;;13.50;;
17171;SDS011;8701;50.150;8.756;2024-01-11T08:10:27;34.83;;;14.37;;
17171;SDS011;8701;50.150;8.756;2024-01-11T08:14:31;33.43;;;13.10;;
17171;SDS011;8701;50.150;8.756;2024-01-11T08:18:33;37.43;;;15.30;;
17171;SDS011;8701;50.150;8.756;2024-01-11T08:22:37;32.13;;;13.60;;
17171;SDS011;8701;50.150;8.756;2024-01-11T08:26:40;30.53;;;13.70;;
17171;SDS011;8701;50.150;8.756;2024-01-11T08:30:43;32.07;;;14.23;;
17171;SDS011;8701;50.150;8.756;2024-01-11T08:34:45;36.40;;;13.80;;
17171;SDS011;8701;50.150;8.756;2024-01-11T08:38:49;34.70;;;15.00;;
17171;SDS011;8701;50.150;8.756;2024-01-11T08:42:52;30.23;;;13.70;;
17171;SDS011;8701;50.150;8.756;2024-01-11T08:46:55;32.97;;;15.27;;
17171;SDS011;8701;50.150;8.756;2024-01-11T08:50:59;34.70;;;15.57;;
17171;SDS011;8701;50.150;8.756;2024-01-11T08:55:04;32.97;;;14.50;;
17171;SDS011;8701;50.150;8.756;2024-01-11T08:59:06;30.93;;;14.67;;
17171;SDS011;8701;50.150;8.756;2024-01-11T09:03:09;34.27;;;14.23;;
17171;SDS011;8701;50.150;8.756;2024-01-11T09:07:12;32.90;;;13.23;;
17171;SDS011;8701;50.150;8.756;2024-01-11T09:11:17;35.13;;;14.27;;
17171;SDS011;8701;50.150;8.756;2024-01-11T09:15:20;36.13;;;15.17;;
17171;SDS011;8701;50.150;8.756;2024-01-11T09:19:22;30.47;;;14.13;;
17171;SDS011;8701;50.150;8.756;2024-01-11T09:23:24;25.93;;;13.97;;
17171;SDS011;8701;50.150;8.756;2024-01-11T09:27:28;27.67;;;14.00;;
17171;SDS011;8701;50.150;8.756;2024-01-11T09:31:31;30.13;;;14.27;;
17171;SDS011;8701;50.150;8.756;2024-01-11T09:35:33;31.90;;;14.27;;
17171;SDS011;8701;50.150;8.756;2024-01-11T09:39:36;33.50;;;15.17;;
17171;SDS011;8701;50.150;8.756;2024-01-11T09:43:41;34.70;;;16.30;;
17171;SDS011;8701;50.150;8.756;2024-01-11T09:47:44;39.03;;;16.43;;
17171;SDS011;8701;50.150;8.756;2024-01-11T09:51:47;31.30;;;15.60;;
17171;SDS011;8701;50.150;8.756;2024-01-11T09:55:51;32.67;;;14.80;;
17171;SDS011;8701;50.150;8.756;2024-01-11T09:59:56;31.53;;;15.63;;
17171;SDS011;8701;50.150;8.756;2024-01-11T10:03:59;32.60;;;15.73;;
17171;SDS011;8701;50.150;8.756;2024-01-11T10:08:01;34.77;;;15.43;;
17171;SDS011;8701;50.150;8.756;2024-01-11T10:12:04;29.63;;;14.27;;
17171;SDS011;8701;50.150;8.756;2024-01-11T10:16:09;35.83;;;17.20;;
17171;SDS011;8701;50.150;8.756;2024-01-11T10:20:14;30.77;;;15.30;;
17171;SDS011;8701;50.150;8.756;2024-01-11T10:24:18;32.13;;;15.43;;
17171;SDS011;8701;50.150;8.756;2024-01-11T10:28:21;33.60;;;16.13;;
17171;SDS011;8701;50.150;8.756;2024-01-11T10:32:24;36.50;;;15.83;;
17171;SDS011;8701;50.150;8.756;2024-01-11T10:36:30;30.53;;;15.43;;
17171;SDS011;8701;50.150;8.756;2024-01-11T10:40:32;33.20;;;15.03;;
17171;SDS011;8701;50.150;8.756;2024-01-11T10:44:35;30.90;;;14.77;;
17171;SDS011;8701;50.150;8.756;2024-01-11T10:48:47;30.20;;;14.37;;
17171;SDS011;8701;50.150;8.756;2024-01-11T10:53:00;32.90;;;16.53;;
17171;SDS011;8701;50.150;8.756;2024-01-11T10:57:04;39.50;;;16.93;;
17171;SDS011;8701;50.150;8.756;2024-01-11T11:01:08;27.83;;;13.57;;
17171;SDS011;8701;50.150;8.756;2024-01-11T11:05:13;36.70;;;15.63;;
17171;SDS011;8701;50.150;8.756;2024-01-11T11:09:17;30.10;;;15.40;;
17171;SDS011;8701;50.150;8.756;2024-01-11T11:13:22;29.77;;;14.63;;
17171;SDS011;8701;50.150;8.756;2024-01-11T11:17:24;32.50;;;18.07;;
17171;SDS011;8701;50.150;8.756;2024-01-11T11:21:29;38.20;;;17.30;;
17171;SDS011;8701;50.150;8.756;2024-01-11T11:25:31;31.17;;;16.20;;
17171;SDS011;8701;50.150;8.756;2024-01-11T11:29:34;31.67;;;15.97;;
17171;SDS011;8701;50.150;8.756;2024-01-11T11:33:36;32.27;;;18.07;;
17171;SDS011;8701;50.150;8.756;2024-01-11T11:37:39;34.63;;;18.13;;
17171;SDS011;8701;50.150;8.756;2024-01-11T11:41:43;36.20;;;18.67;;
17171;SDS011;8701;50.150;8.756;2024-01-11T11:45:46;33.50;;;18.77;;
17171;SDS011;8701;50.150;8.756;2024-01-11T11:50:02;33.83;;;18.20;;
17171;SDS011;8701;50.150;8.756;2024-01-11T11:54:07;34.13;;;19.80;;
17171;SDS011;8701;50.150;8.756;2024-01-11T11:58:12;30.50;;;18.13;;
17171;SDS011;8701;50.150;8.756;2024-01-11T12:02:16;33.00;;;19.67;;
17171;SDS011;8701;50.150;8.756;2024-01-11T12:06:19;34.10;;;20.03;;
17171;SDS011;8701;50.150;8.756;2024-01-11T12:10:25;36.07;;;19.80;;
17171;SDS011;8701;50.150;8.756;2024-01-11T12:14:28;29.27;;;17.03;;
17171;SDS011;8701;50.150;8.756;2024-01-11T12:18:30;33.03;;;20.17;;
17171;SDS011;8701;50.150;8.756;2024-01-11T12:22:32;32.77;;;20.13;;
17171;SDS011;8701;50.150;8.756;2024-01-11T12:26:36;35.60;;;21.40;;
17171;SDS011;8701;50.150;8.756;2024-01-11T12:30:39;31.70;;;20.07;;
17171;SDS011;8701;50.150;8.756;2024-01-11T12:34:43;36.73;;;19.33;;
17171;SDS011;8701;50.150;8.756;2024-01-11T12:38:46;31.93;;;18.87;;
17171;SDS011;8701;50.150;8.756;2024-01-11T12:42:50;32.90;;;19.23;;
17171;SDS011;8701;50.150;8.756;2024-01-11T12:46:53;27.97;;;17.73;;
17171;SDS011;8701;50.150;8.756;2024-01-11T12:50:56;28.87;;;19.17;;
17171;SDS011;8701;50.150;8.756;2024-01-11T12:54:58;36.23;;;20.53;;
17171;SDS011;8701;50.150;8.756;2024-01-11T12:59:06;33.90;;;21.03;;
17171;SDS011;8701;50.150;8.756;2024-01-11T13:03:09;31.70;;;19.97;;
17171;SDS011;8701;50.150;8.756;2024-01-11T13:07:12;32.50;;;19.47;;
17171;SDS011;8701;50.150;8.756;2024-01-11T13:11:16;30.40;;;18.63;;
17171;SDS011;8701;50.150;8.756;2024-01-11T13:15:23;33.87;;;19.27;;
17171;SDS011;8701;50.150;8.756;2024-01-11T13:19:25;35.40;;;19.70;;
17171;SDS011;8701;50.150;8.756;2024-01-11T13:23:27;30.30;;;17.77;;
17171;SDS011;8701;50.150;8.756;2024-01-11T13:27:29;34.97;;;18.70;;
17171;SDS011;8701;50.150;8.756;2024-01-11T13:31:34;35.67;;;19.40;;
17171;SDS011;8701;50.150;8.756;2024-01-11T13:35:37;34.43;;;18.40;;
17171;SDS011;8701;50.150;8.756;2024-01-11T13:39:40;31.33;;;17.10;;
17171;SDS011;8701;50.150;8.756;2024-01-11T13:43:42;29.10;;;16.73;;
17171;SDS011;8701;50.150;8.756;2024-01-11T13:47:46;31.40;;;16.27;;
17171;SDS011;8701;50.150;8.756;2024-01-11T13:51:48;31.30;;;16.80;;
17171;SDS011;8701;50.150;8.756;2024-01-11T13:55:51;28.60;;;15.93;;
17171;SDS011;8701;50.150;8.756;2024-01-11T13:59:53;30.17;;;16.07;;
17171;SDS011;8701;50.150;8.756;2024-01-11T14:03:57;25.83;;;15.33;;
17171;SDS011;8701;50.150;8.756;2024-01-11T14:07:59;27.40;;;15.10;;
17171;SDS011;8701;50.150;8.756;2024-01-11T14:12:02;27.33;;;14.80;;
17171;SDS011;8701;50.150;8.756;2024-01-11T14:16:05;31.13;;;15.93;;
17171;SDS011;8701;50.150;8.756;2024-01-11T14:20:09;25.60;;;14.70;;
17171;SDS011;8701;50.150;8.756;2024-01-11T14:24:14;34.27;;;17.00;;
17171;SDS011;8701;50.150;8.756;2024-01-11T14:28:16;29.83;;;16.97;;
17171;SDS011;8701;50.150;8.756;2024-01-11T14:32:18;36.00;;;17.17;;
17171;SDS011;8701;50.150;8.756;2024-01-11T14:36:22;29.53;;;15.43;;
17171;SDS011;8701;50.150;8.756;2024-01-11T14:40:24;36.57;;;16.33;;
17171;SDS011;8701;50.150;8.756;2024-01-11T14:44:26;34.17;;;16.00;;
17171;SDS011;8701;50.150;8.756;2024-01-11T14:48:29;31.60;;;16.10;;
17171;SDS011;8701;50.150;8.756;2024-01-11T14:52:34;31.40;;;16.10;;
17171;SDS011;8701;50.150;8.756;2024-01-11T14:56:36;28.67;;;15.30;;
17171;SDS011;8701;50.150;8.756;2024-01-11T15:00:38;29.10;;;16.63;;
17171;SDS011;8701;50.150;8.756;2024-01-11T15:04:41;29.70;;;14.83;;
17171;SDS011;8701;50.150;8.756;2024-01-11T15:08:45;37.10;;;15.50;;
17171;SDS011;8701;50.150;8.756;2024-01-11T15:12:47;34.43;;;14.47;;
17171;SDS011;8701;50.150;8.756;2024-01-11T15:16:49;27.80;;;14.70;;
17171;SDS011;8701;50.150;8.756;2024-01-11T15:20:52;31.27;;;15.13;;
17171;SDS011;8701;50.150;8.756;2024-01-11T15:24:55;27.37;;;15.20;;
17171;SDS011;8701;50.150;8.756;2024-01-11T15:28:58;27.80;;;14.13;;
17171;SDS011;8701;50.150;8.756;2024-01-11T15:33:00;30.33;;;13.67;;
17171;SDS011;8701;50.150;8.756;2024-01-11T15:37:02;27.27;;;14.77;;
17171;SDS011;8701;50.150;8.756;2024-01-11T15:41:06;31.33;;;14.67;;
17171;SDS011;8701;50.150;8.756;2024-01-11T15:45:09;34.03;;;15.30;;
17171;SDS011;8701;50.150;8.756;2024-01-11T15:49:11;28.57;;;15.10;;
17171;SDS011;8701;50.150;8.756;2024-01-11T15:53:14;33.97;;;17.67;;
17171;SDS011;8701;50.150;8.756;2024-01-11T15:57:17;33.13;;;16.73;;
17171;SDS011;8701;50.150;8.756;2024-01-11T16:01:19;31.23;;;15.07;;
17171;SDS011;8701;50.150;8.756;2024-01-11T16:05:22;33.33;;;15.80;;
17171;SDS011;8701;50.150;8.756;2024-01-11T16:09:25;28.20;;;15.20;;
17171;SDS011;8701;50.150;8.756;2024-01-11T16:13:29;37.33;;;16.77;;
17171;SDS011;8701;50.150;8.756;2024-01-11T16:17:31;32.00;;;15.63;;
17171;SDS011;8701;50.150;8.756;2024-01-11T16:21:34;30.53;;;14.87;;
17171;SDS011;8701;50.150;8.756;2024-01-11T16:25:36;30.27;;;14.23;;
17171;SDS011;8701;50.150;8.756;2024-01-11T16:29:40;26.63;;;13.53;;
17171;SDS011;8701;50.150;8.756;2024-01-11T16:33:44;28.27;;;13.80;;
17171;SDS011;8701;50.150;8.756;2024-01-11T16:37:46;31.27;;;13.80;;
17171;SDS011;8701;50.150;8.756;2024-01-11T16:41:49;26.70;;;13.80;;
17171;SDS011;8701;50.150;8.756;2024-01-11T16:45:53;31.33;;;14.50;;
17171;SDS011;8701;50.150;8.756;2024-01-11T16:49:55;29.40;;;14.90;;
17171;SDS011;8701;50.150;8.756;2024-01-11T16:53:58;31.73;;;15.60;;
17171;SDS011;8701;50.150;8.756;2024-01-11T16:58:00;27.13;;;15.10;;
17171;SDS011;8701;50.150;8.756;2024-01-11T17:02:05;31.40;;;14.17;;
17171;SDS011;8701;50.150;8.756;2024-01-11T17:06:07;29.40;;;14.30;;
17171;SDS011;8701;50.150;8.756;2024-01-11T17:10:10;33.10;;;15.97;;
17171;SDS011;8701;50.150;8.756;2024-01-11T17:14:12;33.40;;;15.50;;
17171;SDS011;8701;50.150;8.756;2024-01-11T17:18:17;38.87;;;17.00;;
17171;SDS011;8701;50.150;8.756;2024-01-11T17:22:19;33.30;;;17.87;;
17171;SDS011;8701;50.150;8.756;2024-01-11T17:26:22;26.93;;;15.23;;
17171;SDS011;8701;50.150;8.756;2024-01-11T17:30:24;34.47;;;15.60;;
17171;SDS011;8701;50.150;8.756;2024-01-11T17:34:28;25.83;;;12.37;;
17171;SDS011;8701;50.150;8.756;2024-01-11T17:38:30;18.13;;;9.20;;
17171;SDS011;8701;50.150;8.756;2024-01-11T17:42:33;16.20;;;7.97;;
17171;SDS011;8701;50.150;8.756;2024-01-11T17:46:35;13.87;;;7.63;;
17171;SDS011;8701;50.150;8.756;2024-01-11T17:50:39;13.47;;;7.27;;
17171;SDS011;8701;50.150;8.756;2024-01-11T17:54:41;14.30;;;7.73;;
17171;SDS011;8701;50.150;8.756;2024-01-11T17:58:44;16.47;;;7.97;;
17171;SDS011;8701;50.150;8.756;2024-01-11T18:02:46;18.20;;;8.40;;
17171;SDS011;8701;50.150;8.756;2024-01-11T18:06:49;27.83;;;7.37;;
17171;SDS011;8701;50.150;8.756;2024-01-11T18:10:52;16.50;;;7.60;;
17171;SDS011;8701;50.150;8.756;2024-01-11T18:14:54;13.63;;;6.53;;
17171;SDS011;8701;50.150;8.756;2024-01-11T18:18:56;14.43;;;7.10;;
17171;SDS011;8701;50.150;8.756;2024-01-11T18:23:02;10.50;;;6.43;;
17171;SDS011;8701;50.150;8.756;2024-01-11T18:27:05;14.60;;;7.50;;
17171;SDS011;8701;50.150;8.756;2024-01-11T18:31:12;12.60;;;6.53;;
17171;SDS011;8701;50.150;8.756;2024-01-11T18:35:15;17.03;;;7.20;;
17171;SDS011;8701;50.150;8.756;2024-01-11T18:39:19;14.33;;;7.20;;
17171;SDS011;8701;50.150;8.756;2024-01-11T18:43:21;12.93;;;7.40;;
17171;SDS011;8701;50.150;8.756;2024-01-11T18:47:23;18.00;;;7.90;;
17171;SDS011;8701;50.150;8.756;2024-01-11T18:51:26;12.23;;;6.90;;
17171;SDS011;8701;50.150;8.756;2024-01-11T18:55:29;14.97;;;7.27;;
17171;SDS011;8701;50.150;8.756;2024-01-11T18:59:31;15.57;;;7.50;;
17171;SDS011;8701;50.150;8.756;2024-01-11T19:03:34;17.97;;;8.33;;
17171;SDS011;8701;50.150;8.756;2024-01-11T19:07:38;12.00;;;6.63;;
17171;SDS011;8701;50.150;8.756;2024-01-11T19:11:41;15.83;;;7.70;;
17171;SDS011;8701;50.150;8.756;2024-01-11T19:15:45;15.90;;;7.77;;
17171;SDS011;8701;50.150;8.756;2024-01-11T19:19:49;17.30;;;8.00;;
17171;SDS011;8701;50.150;8.756;2024-01-11T19:23:51;16.70;;;8.23;;
17171;SDS011;8701;50.150;8.756;2024-01-11T19:27:55;13.27;;;6.90;;
17171;SDS011;8701;50.150;8.756;2024-01-11T19:32:01;15.17;;;7.30;;
17171;SDS011;8701;50.150;8.756;2024-01-11T19:36:03;18.10;;;8.53;;
17171;SDS011;8701;50.150;8.756;2024-01-11T19:40:06;16.70;;;8.30;;
17171;SDS011;8701;50.150;8.756;2024-01-11T19:44:10;20.50;;;9.00;;
17171;SDS011;8701;50.150;8.756;2024-01-11T19:48:13;14.70;;;7.83;;
17171;SDS011;8701;50.150;8.756;2024-01-11T19:52:17;11.13;;;7.23;;
17171;SDS011;8701;50.150;8.756;2024-01-11T19:56:20;13.03;;;7.37;;
17171;SDS011;8701;50.150;8.756;2024-01-11T20:00:24;18.93;;;8.20;;
17171;SDS011;8701;50.150;8.756;2024-01-11T20:04:27;12.90;;;7.07;;
17171;SDS011;8701;50.150;8.756;2024-01-11T20:08:32;16.30;;;7.70;;
17171;SDS011;8701;50.150;8.756;2024-01-11T20:12:35;11.40;;;7.60;;
17171;SDS011;8701;50.150;8.756;2024-01-11T20:16:39;12.60;;;7.17;;
17171;SDS011;8701;50.150;8.756;2024-01-11T20:20:41;13.13;;;6.97;;
17171;SDS011;8701;50.150;8.756;2024-01-11T20:24:47;10.47;;;5.77;;
17171;SDS011;8701;50.150;8.756;2024-01-11T20:28:49;13.13;;;7.10;;
17171;SDS011;8701;50.150;8.756;2024-01-11T20:32:53;11.40;;;7.23;;
17171;SDS011;8701;50.150;8.756;2024-01-11T20:36:56;10.93;;;7.03;;
17171;SDS011;8701;50.150;8.756;2024-01-11T20:40:59;10.23;;;6.13;;
17171;SDS011;8701;50.150;8.756;2024-01-11T20:45:02;8.50;;;5.30;;
17171;SDS011;8701;50.150;8.756;2024-01-11T20:49:06;8.63;;;5.70;;
17171;SDS011;8701;50.150;8.756;2024-01-11T20:53:08;7.17;;;4.60;;
17171;SDS011;8701;50.150;8.756;2024-01-11T20:57:11;7.53;;;4.77;;
17171;SDS011;8701;50.150;8.756;2024-01-11T21:01:14;9.13;;;5.07;;
17171;SDS011;8701;50.150;8.756;2024-01-11T21:05:18;10.00;;;5.43;;
17171;SDS011;8701;50.150;8.756;2024-01-11T21:09:21;10.17;;;5.70;;
17171;SDS011;8701;50.150;8.756;2024-01-11T21:13:23;8.80;;;5.50;;
17171;SDS011;8701;50.150;8.756;2024-01-11T21:17:25;7.10;;;5.20;;
17171;SDS011;8701;50.150;8.756;2024-01-11T21:21:29;8.87;;;5.30;;
17171;SDS011;8701;50.150;8.756;2024-01-11T21:25:31;9.93;;;5.77;;
17171;SDS011;8701;50.150;8.756;2024-01-11T21:29:35;10.10;;;5.47;;
17171;SDS011;8701;50.150;8.756;2024-01-11T21:33:41;10.53;;;6.33;;
17171;SDS011;8701;50.150;8.756;2024-01-11T21:37:45;12.07;;;6.00;;
17171;SDS011;8701;50.150;8.756;2024-01-11T21:41:48;10.70;;;6.30;;
17171;SDS011;8701;50.150;8.756;2024-01-11T21:45:51;10.33;;;6.27;;
17171;SDS011;8701;50.150;8.756;2024-01-11T21:49:53;7.43;;;4.73;;
17171;SDS011;8701;50.150;8.756;2024-01-11T21:53:57;9.83;;;6.43;;
17171;SDS011;8701;50.150;8.756;2024-01-11T21:57:59;11.77;;;6.40;;
17171;SDS011;8701;50.150;8.756;2024-01-11T22:02:02;10.77;;;6.40;;
17171;SDS011;8701;50.150;8.756;2024-01-11T22:06:04;7.87;;;5.70;;
17171;SDS011;8701;50.150;8.756;2024-01-11T22:10:08;8.57;;;6.03;;
17171;SDS011;8701;50.150;8.756;2024-01-11T22:14:11;11.53;;;6.53;;
17171;SDS011;8701;50.150;8.756;2024-01-11T22:18:13;8.67;;;6.20;;
17171;SDS011;8701;50.150;8.756;2024-01-11T22:22:15;9.07;;;5.97;;
17171;SDS011;8701;50.150;8.756;2024-01-11T22:26:22;10.97;;;6.67;;
17171;SDS011;8701;50.150;8.756;2024-01-11T22:30:26;10.30;;;6.50;;
17171;SDS011;8701;50.150;8.756;2024-01-11T22:34:29;10.03;;;6.30;;
17171;SDS011;8701;50.150;8.756;2024-01-11T22:38:31;12.40;;;6.70;;
17171;SDS011;8701;50.150;8.756;2024-01-11T22:42:35;9.77;;;6.23;;
17171;SDS011;8701;50.150;8.756;2024-01-11T22:46:37;11.27;;;5.60;;
17171;SDS011;8701;50.150;8.756;2024-01-11T22:50:39;8.23;;;4.93;;
17171;SDS011;8701;50.150;8.756;2024-01-11T22:54:42;8.97;;;6.23;;
17171;SDS011;8701;50.150;8.756;2024-01-11T22:58:46;10.27;;;6.30;;
17171;SDS011;8701;50.150;8.756;2024-01-11T23:02:48;10.00;;;6.60;;
17171;SDS011;8701;50.150;8.756;2024-01-11T23:06:51;7.83;;;5.97;;
17171;SDS011;8701;50.150;8.756;2024-01-11T23:10:54;7.80;;;6.00;;
17171;SDS011;8701;50.150;8.756;2024-01-11T23:14:57;7.80;;;5.60;;
17171;SDS011;8701;50.150;8.756;2024-01-11T23:19:00;7.53;;;5.60;;
17171;SDS011;8701;50.150;8.756;2024-01-11T23:23:03;7.03;;;5.10;;
17171;SDS011;8701;50.150;8.756;2024-01-11T23:27:05;7.10;;;5.00;;
17171;SDS011;8701;50.150;8.756;2024-01-11T23:31:10;11.50;;;4.33;;
17171;SDS011;8701;50.150;8.756;2024-01-11T23:35:13;7.17;;;5.43;;
17171;SDS011;8701;50.150;8.756;2024-01-11T23:39:15;9.20;;;5.30;;
17171;SDS011;8701;50.150;8.756;2024-01-11T23:43:17;9.70;;;5.80;;
17171;SDS011;8701;50.150;8.756;2024-01-11T23:47:21;9.63;;;5.20;;
17171;SDS011;8701;50.150;8.756;2024-01-11T23:51:23;7.13;;;5.20;;
17171;SDS011;8701;50.150;8.756;2024-01-11T23:55:25;11.43;;;6.13;;
17171;SDS011;8701;50.150;8.756;2024-01-11T23:59:28;8.67;;;5.10;;
